createdAt,value
2023-05-10T00:01:20.211Z,7.63
2023-05-10T00:06:31.494Z,7.68
2023-05-10T00:11:35.992Z,7.78
2023-05-10T00:16:41.977Z,7.81
2023-05-10T00:21:47.866Z,7.77
2023-05-10T00:26:51.990Z,7.75
2023-05-10T00:31:56.809Z,7.68
2023-05-10T00:37:03.112Z,7.68
2023-05-10T00:42:07.247Z,7.47
2023-05-10T00:47:13.052Z,7.38
2023-05-10T00:52:18.916Z,7.30
2023-05-10T00:57:23.621Z,7.18
2023-05-10T01:02:28.566Z,7.04
2023-05-10T01:07:36.219Z,6.85
2023-05-10T01:12:43.892Z,6.68
2023-05-10T01:17:51.101Z,6.73
2023-05-10T01:23:22.856Z,6.60
2023-05-10T01:29:08.959Z,6.62
2023-05-10T01:34:21.967Z,6.61
2023-05-10T01:39:31.549Z,6.29
2023-05-10T01:44:40.408Z,6.24
2023-05-10T01:49:51.233Z,6.18
2023-05-10T01:55:02.865Z,6.19
2023-05-10T02:00:11.879Z,6.20
2023-05-10T02:05:23.061Z,6.28
2023-05-10T02:10:27.869Z,6.39
2023-05-10T02:15:33.424Z,6.21
2023-05-10T02:20:41.212Z,6.10
2023-05-10T02:25:47.880Z,6.02
2023-05-10T02:30:52.637Z,6.04
2023-05-10T02:36:00.646Z,5.92
2023-05-10T02:41:07.475Z,5.99
2023-05-10T02:46:11.901Z,5.90
2023-05-10T02:51:22.082Z,5.83
2023-05-10T02:56:31.464Z,5.78
2023-05-10T03:01:36.286Z,5.95
2023-05-10T03:06:42.510Z,5.94
2023-05-10T03:11:57.283Z,5.98
2023-05-10T03:17:08.744Z,5.94
2023-05-10T03:22:21.080Z,5.90
2023-05-10T03:27:26.492Z,6.03
2023-05-10T03:32:34.055Z,6.06
2023-05-10T03:37:40.768Z,6.32
2023-05-10T03:42:44.900Z,6.35
2023-05-10T03:47:49.240Z,6.47
2023-05-10T03:52:56.352Z,6.63
2023-05-10T03:58:00.590Z,6.85
2023-05-10T04:03:04.925Z,7.02
2023-05-10T04:08:10.459Z,7.09
2023-05-10T04:13:14.965Z,7.22
2023-05-10T04:18:19.456Z,7.37
2023-05-10T04:23:24.970Z,7.53
2023-05-10T04:28:29.200Z,7.72
2023-05-10T04:33:34.635Z,7.84
2023-05-10T04:38:40.593Z,8.13
2023-05-10T04:43:44.926Z,8.36
2023-05-10T04:48:49.892Z,8.56
2023-05-10T04:54:05.424Z,8.77
2023-05-10T04:59:10.772Z,9.06
2023-05-10T05:04:15.702Z,9.43
2023-05-10T05:09:20.991Z,9.70
2023-05-10T05:14:26.342Z,9.85
2023-05-10T05:19:30.583Z,10.25
2023-05-10T05:24:39.932Z,10.45
2023-05-10T05:29:44.000Z,10.75
2023-05-10T05:34:48.245Z,10.82
2023-05-10T05:39:55.689Z,11.18
2023-05-10T05:45:00.930Z,11.45
2023-05-10T05:50:05.352Z,11.70
2023-05-10T05:55:12.223Z,11.82
2023-05-10T06:00:17.314Z,12.23
2023-05-10T06:05:23.815Z,12.15
2023-05-10T06:10:29.921Z,12.32
2023-05-10T06:15:35.850Z,12.06
2023-05-10T06:20:41.477Z,12.42
2023-05-10T06:25:47.241Z,12.81
2023-05-10T06:30:51.782Z,13.10
2023-05-10T06:35:57.022Z,13.25
2023-05-10T06:41:03.148Z,13.63
2023-05-10T06:46:07.890Z,13.22
2023-05-10T06:51:13.253Z,13.37
2023-05-10T06:56:22.786Z,13.97
2023-05-10T07:01:31.161Z,13.72
2023-05-10T07:06:36.497Z,14.55
2023-05-10T07:11:54.557Z,14.25
2023-05-10T07:17:13.398Z,14.44
2023-05-10T07:22:23.219Z,15.08
2023-05-10T07:27:34.462Z,15.71
2023-05-10T07:32:43.320Z,16.40
2023-05-10T07:37:59.353Z,15.96
2023-05-10T07:43:07.945Z,16.18
2023-05-10T07:48:15.274Z,15.27
2023-05-10T07:53:21.396Z,15.12
2023-05-10T07:58:30.525Z,14.45
2023-05-10T08:03:43.540Z,13.88
2023-05-10T08:08:52.054Z,15.17
2023-05-10T08:14:02.234Z,15.16
2023-05-10T08:19:08.292Z,16.40
2023-05-10T08:24:17.440Z,16.45
2023-05-10T08:29:28.541Z,17.52
2023-05-10T08:34:36.727Z,16.87
2023-05-10T08:39:42.603Z,17.54
2023-05-10T08:44:55.682Z,18.53
2023-05-10T08:50:01.461Z,18.95
2023-05-10T08:55:06.737Z,18.91
2023-05-10T09:00:19.289Z,17.22
2023-05-10T09:05:25.042Z,17.28
2023-05-10T09:10:30.845Z,18.71
2023-05-10T09:15:38.114Z,19.28
2023-05-10T09:20:45.416Z,17.75
2023-05-10T09:25:51.177Z,18.08
2023-05-10T09:31:06.512Z,18.21
2023-05-10T09:36:18.689Z,17.35
2023-05-10T09:41:26.247Z,18.25
2023-05-10T09:46:33.065Z,19.18
2023-05-10T09:51:39.107Z,18.59
2023-05-10T09:56:43.675Z,18.72
2023-05-10T10:01:56.482Z,19.06
2023-05-10T10:07:07.381Z,19.35
2023-05-10T10:12:14.026Z,18.73
2023-05-10T10:17:25.152Z,18.84
2023-05-10T10:22:29.835Z,19.91
2023-05-10T10:27:45.844Z,19.39
2023-05-10T10:33:16.607Z,20.09
2023-05-10T10:38:24.730Z,20.19
2023-05-10T10:43:30.765Z,19.62
2023-05-10T10:48:36.577Z,20.56
2023-05-10T10:53:42.392Z,20.30
2023-05-10T10:58:54.826Z,17.99
2023-05-10T11:04:29.196Z,18.34
2023-05-10T11:09:42.707Z,19.83
2023-05-10T11:14:53.931Z,19.48
2023-05-10T11:20:20.565Z,20.29
2023-05-10T11:25:31.407Z,19.54
2023-05-10T11:31:04.264Z,17.97
2023-05-10T11:36:15.794Z,19.39
2023-05-10T11:41:33.394Z,19.01
2023-05-10T11:46:47.666Z,19.64
2023-05-10T11:52:09.248Z,19.74
2023-05-10T11:57:14.456Z,19.52
2023-05-10T12:02:20.152Z,19.94
2023-05-10T12:07:30.004Z,19.08
2023-05-10T12:12:43.995Z,19.66
2023-05-10T12:17:49.243Z,19.32
2023-05-10T12:23:00.489Z,19.15
2023-05-10T12:28:08.657Z,19.40
2023-05-10T12:33:18.217Z,19.25
2023-05-10T12:38:32.890Z,19.50
2023-05-10T12:43:41.148Z,17.76
2023-05-10T12:48:47.437Z,18.61
2023-05-10T12:53:53.471Z,19.37
2023-05-10T12:58:57.908Z,18.43
2023-05-10T13:04:02.952Z,18.28
2023-05-10T13:10:05.950Z,17.94
2023-05-10T13:22:09.837Z,18.38
2023-05-10T13:28:09.670Z,19.02
2023-05-10T13:33:40.756Z,17.49
2023-05-10T13:38:47.944Z,17.41
2023-05-10T13:44:28.907Z,17.97
2023-05-10T13:49:57.080Z,18.21
2023-05-10T13:56:15.839Z,17.43
2023-05-10T14:15:47.245Z,17.24
2023-05-10T14:20:52.169Z,17.08
2023-05-10T14:25:55.741Z,17.33
2023-05-10T14:31:00.005Z,16.83
2023-05-10T14:36:05.700Z,15.92
2023-05-10T14:41:11.729Z,16.10
2023-05-10T14:46:15.692Z,16.44
2023-05-10T14:51:22.859Z,16.12
2023-05-10T14:56:26.942Z,15.96
2023-05-10T15:01:30.707Z,15.92
2023-05-10T15:06:37.009Z,15.50
2023-05-10T15:11:40.507Z,15.38
2023-05-10T15:16:43.932Z,15.49
2023-05-10T15:21:49.144Z,15.16
2023-05-10T15:26:52.973Z,14.88
2023-05-10T15:31:56.420Z,14.83
2023-05-10T15:37:01.414Z,14.80
2023-05-10T15:42:05.252Z,14.72
2023-05-10T15:47:08.837Z,14.74
2023-05-10T15:52:14.005Z,14.53
2023-05-10T15:57:17.925Z,14.46
2023-05-10T16:02:22.698Z,14.10
2023-05-10T16:07:27.935Z,13.91
2023-05-10T16:12:32.162Z,13.70
2023-05-10T16:17:37.462Z,13.63
2023-05-10T16:22:44.418Z,13.41
2023-05-10T16:27:48.015Z,13.39
2023-05-10T16:32:51.573Z,13.21
2023-05-10T16:37:56.742Z,12.91
2023-05-10T16:43:00.178Z,12.98
2023-05-10T16:48:03.921Z,12.89
2023-05-10T16:53:08.868Z,12.72
2023-05-10T16:58:12.810Z,12.61
2023-05-10T17:03:16.947Z,12.56
2023-05-10T17:08:23.220Z,12.20
2023-05-10T17:13:26.666Z,12.17
2023-05-10T17:18:30.227Z,12.01
2023-05-10T17:23:35.092Z,11.75
2023-05-10T17:28:40.682Z,11.66
2023-05-10T17:33:44.097Z,11.59
2023-05-10T17:38:49.602Z,11.42
2023-05-10T17:43:54.881Z,11.29
2023-05-10T17:48:58.821Z,11.35
2023-05-10T17:54:03.783Z,11.23
2023-05-10T17:59:07.591Z,11.15
2023-05-10T18:04:11.297Z,10.84
2023-05-10T18:09:17.959Z,10.78
2023-05-10T18:14:35.977Z,10.75
2023-05-10T18:19:43.146Z,10.60
2023-05-10T18:25:03.398Z,10.42
2023-05-10T18:30:10.329Z,10.36
2023-05-10T18:35:14.094Z,10.30
2023-05-10T18:40:19.699Z,10.32
2023-05-10T18:45:24.044Z,10.06
2023-05-10T18:50:27.588Z,10.09
2023-05-10T18:55:32.525Z,9.95
2023-05-10T19:00:35.989Z,9.92
2023-05-10T19:05:39.459Z,9.95
2023-05-10T19:10:44.414Z,9.85
2023-05-10T19:15:48.597Z,9.80
2023-05-10T19:20:56.486Z,9.87
2023-05-10T19:26:01.682Z,9.71
2023-05-10T19:31:06.302Z,9.76
2023-05-10T19:36:10.118Z,9.51
2023-05-10T19:41:15.184Z,9.43
2023-05-10T19:46:20.134Z,9.42
2023-05-10T19:51:23.875Z,9.31
2023-05-10T19:56:29.686Z,9.43
2023-05-10T20:01:33.186Z,9.38
2023-05-10T20:06:36.746Z,9.39
2023-05-10T20:11:41.879Z,9.20
2023-05-10T20:16:45.855Z,9.19
2023-05-10T20:21:49.414Z,9.01
2023-05-10T20:26:54.657Z,8.98
2023-05-10T20:31:58.241Z,8.99
2023-05-10T20:37:02.042Z,8.55
2023-05-10T20:42:07.980Z,8.46
2023-05-10T20:47:11.647Z,8.37
2023-05-10T20:52:15.596Z,8.45
2023-05-10T20:57:21.176Z,8.43
2023-05-10T21:02:25.061Z,8.39
2023-05-10T21:07:28.508Z,8.04
2023-05-10T21:12:33.447Z,8.04
2023-05-10T21:17:37.092Z,8.46
2023-05-10T21:22:40.496Z,8.26
2023-05-10T21:27:46.008Z,8.25
2023-05-10T21:32:49.495Z,8.32
2023-05-10T21:37:53.017Z,8.42
2023-05-10T21:42:57.984Z,8.37
2023-05-10T21:48:01.789Z,8.08
2023-05-10T21:53:05.668Z,8.24
2023-05-10T21:58:11.052Z,8.15
2023-05-10T22:03:14.904Z,8.22
2023-05-10T22:08:18.491Z,8.26
2023-05-10T22:13:23.318Z,8.24
2023-05-10T22:18:26.887Z,8.17
2023-05-10T22:23:30.355Z,7.99
2023-05-10T22:28:35.214Z,7.95
2023-05-10T22:33:38.733Z,7.97
2023-05-10T22:38:43.492Z,7.88
2023-05-10T22:43:48.673Z,7.87
2023-05-10T22:48:52.537Z,7.71
2023-05-10T22:53:56.014Z,7.72
2023-05-10T22:59:01.282Z,7.55
2023-05-10T23:04:05.056Z,7.75
2023-05-10T23:09:09.078Z,7.60
2023-05-10T23:14:14.302Z,7.18
2023-05-10T23:19:17.759Z,7.14
2023-05-10T23:24:21.237Z,7.20
2023-05-10T23:29:26.744Z,7.36
2023-05-10T23:34:30.181Z,7.40
2023-05-10T23:39:34.051Z,7.23
2023-05-10T23:44:38.867Z,6.91
2023-05-10T23:49:43.148Z,6.86
2023-05-10T23:54:46.905Z,6.78
2023-05-10T23:59:51.873Z,6.78
